Time,TemperatureF,DewpointF,PressureIn,WindDirection,WindDirectionDegrees,WindSpeedMPH,WindSpeedGustMPH,Humidity,HourlyPrecipIn,Conditions,Clouds,dailyrainin,SoftwareType,DateUTC
2013-05-21 00:04:00,68.3,58.0,29.90,North,5,6.0,-999.0,70,-99.99,,,0.00,weatherlink.com 1.10,2013-05-21 04:04:00,
2013-05-21 00:19:00,67.4,58.0,29.89,North,360,6.0,-999.0,72,-99.99,,,0.00,weatherlink.com 1.10,2013-05-21 04:19:00,
2013-05-21 00:34:00,66.8,57.0,29.88,North,9,0.0,-999.0,72,-99.99,,,0.00,weatherlink.com 1.10,2013-05-21 04:34:00,
2013-05-21 00:49:00,66.3,58.0,29.87,North,9,0.0,-999.0,74,-99.99,,,0.00,weatherlink.com 1.10,2013-05-21 04:49:00,
2013-05-21 01:04:00,65.6,58.0,29.86,North,9,0.0,-999.0,76,-99.99,,,0.00,weatherlink.com 1.10,2013-05-21 05:04:00,
2013-05-21 01:19:00,65.2,58.0,29.87,North,10,0.0,-999.0,78,-99.99,,,0.00,weatherlink.com 1.10,2013-05-21 05:19:00,
2013-05-21 01:34:00,64.8,58.0,29.86,North,10,0.0,-999.0,79,-99.99,,,0.00,weatherlink.com 1.10,2013-05-21 05:34:00,
2013-05-21 01:49:00,64.7,58.0,29.85,North,9,0.0,-999.0,80,-99.99,,,0.00,weatherlink.com 1.10,2013-05-21 05:49:00,
2013-05-21 02:04:00,64.7,59.0,29.85,North,10,0.0,-999.0,81,-99.99,,,0.00,weatherlink.com 1.10,2013-05-21 06:04:00,
2013-05-21 02:19:00,64.3,59.0,29.84,North,10,0.0,-999.0,82,-99.99,,,0.00,weatherlink.com 1.10,2013-05-21 06:19:00,
2013-05-21 02:34:00,64.3,59.0,29.84,North,10,0.0,-999.0,82,-99.99,,,0.00,weatherlink.com 1.10,2013-05-21 06:34:00,
2013-05-21 02:49:00,64.2,59.0,29.85,North,9,0.0,-999.0,83,-99.99,,,0.00,weatherlink.com 1.10,2013-05-21 06:49:00,
2013-05-21 03:04:00,64.5,59.0,29.84,North,10,0.0,-999.0,83,-99.99,,,0.00,weatherlink.com 1.10,2013-05-21 07:04:00,
2013-05-21 03:19:00,64.8,60.0,29.84,North,9,0.0,-999.0,83,-99.99,,,0.00,weatherlink.com 1.10,2013-05-21 07:19:00,
2013-05-21 03:34:00,65.2,59.0,29.83,North,10,0.0,-999.0,81,-99.99,,,0.00,weatherlink.com 1.10,2013-05-21 07:34:00,
2013-05-21 03:49:00,65.3,59.0,29.83,North,10,0.0,-999.0,80,-99.99,,,0.00,weatherlink.com 1.10,2013-05-21 07:49:00,
2013-05-21 04:04:00,65.3,59.0,29.83,North,10,0.0,-999.0,79,-99.99,,,0.00,weatherlink.com 1.10,2013-05-21 08:04:00,
2013-05-21 04:19:00,65.3,59.0,29.82,NNE,13,0.0,-999.0,79,-99.99,,,0.00,weatherlink.com 1.10,2013-05-21 08:19:00,
2013-05-21 04:34:00,65.3,58.0,29.82,NNE,14,0.0,-999.0,78,-99.99,,,0.00,weatherlink.com 1.10,2013-05-21 08:34:00,
2013-05-21 04:49:00,65.3,58.0,29.82,NNE,15,0.0,-999.0,78,-99.99,,,0.00,weatherlink.com 1.10,2013-05-21 08:49:00,
2013-05-21 05:04:00,65.5,58.0,29.82,NNE,15,0.0,-999.0,77,-99.99,,,0.00,weatherlink.com 1.10,2013-05-21 09:04:00,
2013-05-21 05:19:00,65.6,58.0,29.82,NNE,15,0.0,-999.0,76,-99.99,,,0.00,weatherlink.com 1.10,2013-05-21 09:19:00,
2013-05-21 05:34:00,65.8,58.0,29.83,NNE,15,0.0,-999.0,75,-99.99,,,0.00,weatherlink.com 1.10,2013-05-21 09:34:00,
2013-05-21 05:49:00,66.0,58.0,29.82,NNE,15,0.0,-999.0,75,-99.99,,,0.00,weatherlink.com 1.10,2013-05-21 09:49:00,
2013-05-21 06:04:00,66.1,58.0,29.83,NE,44,0.0,-999.0,74,-99.99,,,0.00,weatherlink.com 1.10,2013-05-21 10:04:00,
2013-05-21 06:19:00,66.3,58.0,29.84,ENE,63,0.0,-999.0,75,-99.99,,,0.00,weatherlink.com 1.10,2013-05-21 10:19:00,
2013-05-21 06:34:00,66.4,58.0,29.84,ENE,70,0.0,-999.0,75,-99.99,,,0.00,weatherlink.com 1.10,2013-05-21 10:34:00,
2013-05-21 06:49:00,67.1,59.0,29.83,ESE,102,0.0,-999.0,76,-99.99,,,0.00,weatherlink.com 1.10,2013-05-21 10:49:00,
2013-05-21 07:04:00,67.9,61.0,29.83,ESE,115,0.0,-999.0,78,-99.99,,,0.00,weatherlink.com 1.10,2013-05-21 11:04:00,
2013-05-21 07:19:00,68.9,62.0,29.84,ESE,115,0.0,-999.0,79,-99.99,,,0.00,weatherlink.com 1.10,2013-05-21 11:19:00,
2013-05-21 07:34:00,70.6,64.0,29.84,SE,143,0.0,-999.0,79,-99.99,,,0.00,weatherlink.com 1.10,2013-05-21 11:34:00,
2013-05-21 07:49:00,72.1,65.0,29.84,SSE,161,0.0,-999.0,78,-99.99,,,0.00,weatherlink.com 1.10,2013-05-21 11:49:00,
2013-05-21 08:04:00,73.2,66.0,29.83,SW,223,2.0,-999.0,77,-99.99,,,0.00,weatherlink.com 1.10,2013-05-21 12:04:00,
2013-05-21 08:19:00,73.9,66.0,29.83,SW,215,0.0,-999.0,77,-99.99,,,0.00,weatherlink.com 1.10,2013-05-21 12:19:00,
2013-05-21 08:34:00,74.7,67.0,29.84,South,184,0.0,-999.0,76,-99.99,,,0.00,weatherlink.com 1.10,2013-05-21 12:34:00,
2013-05-21 08:49:00,74.9,67.0,29.84,SW,234,0.0,-999.0,76,-99.99,,,0.00,weatherlink.com 1.10,2013-05-21 12:49:00,
2013-05-21 09:04:00,75.3,67.0,29.84,South,175,1.0,-999.0,75,-99.99,,,0.00,weatherlink.com 1.10,2013-05-21 13:04:00,
2013-05-21 09:19:00,74.7,67.0,29.83,SSW,213,2.0,-999.0,77,-99.99,,,0.00,weatherlink.com 1.10,2013-05-21 13:19:00,
2013-05-21 09:34:00,74.6,67.0,29.82,SW,226,0.0,-999.0,78,-99.99,,,0.00,weatherlink.com 1.10,2013-05-21 13:34:00,
2013-05-21 09:49:00,76.0,68.0,29.82,SW,225,0.0,-999.0,75,-99.99,,,0.00,weatherlink.com 1.10,2013-05-21 13:49:00,
2013-05-21 10:04:00,76.7,67.0,29.82,SW,224,1.0,-999.0,73,-99.99,,,0.00,weatherlink.com 1.10,2013-05-21 14:04:00,
2013-05-21 10:19:00,77.4,67.0,29.82,SSE,151,0.0,-999.0,71,-99.99,,,0.00,weatherlink.com 1.10,2013-05-21 14:19:00,
2013-05-21 10:34:00,78.1,68.0,29.81,SW,218,0.0,-999.0,70,-99.99,,,0.00,weatherlink.com 1.10,2013-05-21 14:34:00,
2013-05-21 10:49:00,78.6,67.0,29.82,SW,218,3.0,-999.0,68,-99.99,,,0.00,weatherlink.com 1.10,2013-05-21 14:49:00,
2013-05-21 11:04:00,78.5,67.0,29.82,SW,219,2.0,-999.0,68,-99.99,,,0.00,weatherlink.com 1.10,2013-05-21 15:04:00,
2013-05-21 11:19:00,78.8,67.0,29.82,SW,227,5.0,-999.0,68,-99.99,,,0.00,weatherlink.com 1.10,2013-05-21 15:19:00,
2013-05-21 11:34:00,79.6,66.0,29.81,SW,220,5.0,-999.0,64,-99.99,,,0.00,weatherlink.com 1.10,2013-05-21 15:34:00,
2013-05-21 11:49:00,80.1,66.0,29.80,SW,236,0.0,-999.0,63,-99.99,,,0.00,weatherlink.com 1.10,2013-05-21 15:49:00,
2013-05-21 12:04:00,81.1,66.0,29.80,SW,232,3.0,-999.0,61,-99.99,,,0.00,weatherlink.com 1.10,2013-05-21 16:04:00,
2013-05-21 12:19:00,81.4,66.0,29.80,WSW,245,0.0,-999.0,59,-99.99,,,0.00,weatherlink.com 1.10,2013-05-21 16:19:00,
2013-05-21 12:34:00,80.5,66.0,29.80,SW,232,1.0,-999.0,62,-99.99,,,0.00,weatherlink.com 1.10,2013-05-21 16:34:00,
2013-05-21 12:49:00,81.2,66.0,29.79,SW,225,0.0,-999.0,60,-99.99,,,0.00,weatherlink.com 1.10,2013-05-21 16:49:00,
2013-05-21 13:04:00,81.8,66.0,29.78,SW,229,1.0,-999.0,59,-99.99,,,0.00,weatherlink.com 1.10,2013-05-21 17:04:00,
2013-05-21 13:19:00,82.2,67.0,29.77,SW,221,0.0,-999.0,60,-99.99,,,0.00,weatherlink.com 1.10,2013-05-21 17:19:00,
2013-05-21 13:34:00,83.2,66.0,29.76,SSW,200,0.0,-999.0,56,-99.99,,,0.00,weatherlink.com 1.10,2013-05-21 17:34:00,
2013-05-21 13:49:00,83.8,66.0,29.75,SW,219,0.0,-999.0,56,-99.99,,,0.00,weatherlink.com 1.10,2013-05-21 17:49:00,
2013-05-21 14:04:00,83.0,67.0,29.75,SW,233,0.0,-999.0,58,-99.99,,,0.00,weatherlink.com 1.10,2013-05-21 18:04:00,
2013-05-21 14:19:00,83.2,67.0,29.75,SW,221,0.0,-999.0,59,-99.99,,,0.00,weatherlink.com 1.10,2013-05-21 18:19:00,
2013-05-21 14:34:00,84.0,67.0,29.75,SW,215,0.0,-999.0,56,-99.99,,,0.00,weatherlink.com 1.10,2013-05-21 18:34:00,
2013-05-21 14:49:00,84.3,67.0,29.75,SSW,211,0.0,-999.0,56,-99.99,,,0.00,weatherlink.com 1.10,2013-05-21 18:49:00,
2013-05-21 15:04:00,84.9,64.0,29.75,WSW,238,3.0,-999.0,50,-99.99,,,0.00,weatherlink.com 1.10,2013-05-21 19:04:00,
2013-05-21 15:19:00,85.1,66.0,29.74,SW,219,0.0,-999.0,53,-99.99,,,0.00,weatherlink.com 1.10,2013-05-21 19:19:00,
2013-05-21 15:34:00,85.3,65.0,29.74,SW,226,0.0,-999.0,51,-99.99,,,0.00,weatherlink.com 1.10,2013-05-21 19:34:00,
2013-05-21 15:49:00,85.3,65.0,29.73,SW,215,7.0,-999.0,51,-99.99,,,0.00,weatherlink.com 1.10,2013-05-21 19:49:00,
2013-05-21 16:04:00,85.3,65.0,29.73,WSW,240,0.0,-999.0,51,-99.99,,,0.00,weatherlink.com 1.10,2013-05-21 20:04:00,
2013-05-21 16:19:00,84.9,65.0,29.72,SW,228,3.0,-999.0,52,-99.99,,,0.00,weatherlink.com 1.10,2013-05-21 20:19:00,
2013-05-21 16:34:00,84.9,66.0,29.71,South,191,0.0,-999.0,53,-99.99,,,0.00,weatherlink.com 1.10,2013-05-21 20:34:00,
2013-05-21 16:49:00,84.3,66.0,29.72,South,191,0.0,-999.0,55,-99.99,,,0.00,weatherlink.com 1.10,2013-05-21 20:49:00,
2013-05-21 17:04:00,83.4,66.0,29.72,South,186,3.0,-999.0,56,-99.99,,,0.00,weatherlink.com 1.10,2013-05-21 21:04:00,
2013-05-21 17:19:00,82.6,65.0,29.73,SW,227,1.0,-999.0,55,-99.99,,,0.00,weatherlink.com 1.10,2013-05-21 21:19:00,
2013-05-21 17:34:00,81.6,63.0,29.73,SW,225,10.0,-999.0,54,-99.99,,,0.00,weatherlink.com 1.10,2013-05-21 21:34:00,
2013-05-21 17:49:00,80.3,62.0,29.73,SSW,209,3.0,-999.0,54,-99.99,,,0.00,weatherlink.com 1.10,2013-05-21 21:49:00,
2013-05-21 18:04:00,80.3,62.0,29.72,SSE,165,6.0,-999.0,53,-99.99,,,0.00,weatherlink.com 1.10,2013-05-21 22:04:00,
2013-05-21 18:19:00,79.6,61.0,29.72,South,170,0.0,-999.0,53,-99.99,,,0.00,weatherlink.com 1.10,2013-05-21 22:19:00,
2013-05-21 18:34:00,78.8,60.0,29.72,South,171,0.0,-999.0,52,-99.99,,,0.00,weatherlink.com 1.10,2013-05-21 22:34:00,
2013-05-21 18:49:00,78.1,61.0,29.72,SSW,205,0.0,-999.0,55,-99.99,,,0.00,weatherlink.com 1.10,2013-05-21 22:49:00,
2013-05-21 19:04:00,77.2,60.0,29.71,South,174,0.0,-999.0,55,-99.99,,,0.00,weatherlink.com 1.10,2013-05-21 23:04:00,
2013-05-21 19:19:00,76.0,60.0,29.72,SW,225,0.0,-999.0,57,-99.99,,,0.00,weatherlink.com 1.10,2013-05-21 23:19:00,
2013-05-21 19:34:00,75.4,59.0,29.73,SSW,207,0.0,-999.0,58,-99.99,,,0.00,weatherlink.com 1.10,2013-05-21 23:34:00,
2013-05-21 19:50:00,73.3,57.0,29.73,SSW,205,1.0,-999.0,58,-99.99,,,0.00,weatherlink.com 1.10,2013-05-21 23:50:00,
2013-05-21 20:05:00,71.1,61.0,29.74,SW,221,0.0,-999.0,71,-99.99,,,0.02,weatherlink.com 1.10,2013-05-22 00:05:00,
2013-05-21 20:20:00,69.4,62.0,29.76,SW,220,0.0,-999.0,77,-99.99,,,0.02,weatherlink.com 1.10,2013-05-22 00:20:00,
2013-05-21 20:35:00,68.9,62.0,29.75,South,189,0.0,-999.0,78,-99.99,,,0.02,weatherlink.com 1.10,2013-05-22 00:35:00,
2013-05-21 20:49:00,69.1,62.0,29.75,South,190,0.0,-999.0,77,-99.99,,,0.02,weatherlink.com 1.10,2013-05-22 00:49:00,
2013-05-21 21:05:00,68.8,61.0,29.75,South,190,0.0,-999.0,77,-99.99,,,0.02,weatherlink.com 1.10,2013-05-22 01:05:00,
2013-05-21 21:20:00,68.3,61.0,29.75,South,190,0.0,-999.0,77,-99.99,,,0.02,weatherlink.com 1.10,2013-05-22 01:20:00,
2013-05-21 21:35:00,67.9,60.0,29.75,South,190,0.0,-999.0,76,-99.99,,,0.02,weatherlink.com 1.10,2013-05-22 01:35:00,
2013-05-21 21:50:00,67.6,60.0,29.74,South,190,0.0,-999.0,77,-99.99,,,0.02,weatherlink.com 1.10,2013-05-22 01:50:00,
2013-05-21 22:20:00,66.8,60.0,29.75,South,190,0.0,-999.0,80,-99.99,,,0.02,weatherlink.com 1.10,2013-05-22 02:20:00,
2013-05-21 22:35:00,66.4,60.0,29.75,South,190,0.0,-999.0,81,-99.99,,,0.02,weatherlink.com 1.10,2013-05-22 02:35:00,
2013-05-21 22:50:00,66.9,62.0,29.75,South,190,0.0,-999.0,84,-99.99,,,0.02,weatherlink.com 1.10,2013-05-22 02:50:00,
2013-05-21 23:05:00,67.6,63.0,29.75,South,190,0.0,-999.0,85,-99.99,,,0.02,weatherlink.com 1.10,2013-05-22 03:05:00,
2013-05-21 23:20:00,66.9,62.0,29.75,SSW,193,0.0,-999.0,84,-99.99,,,0.02,weatherlink.com 1.10,2013-05-22 03:20:00,
2013-05-21 23:35:00,66.8,61.0,29.74,SSW,193,0.0,-999.0,82,-99.99,,,0.02,weatherlink.com 1.10,2013-05-22 03:35:00,
2013-05-21 23:50:00,66.9,61.0,29.74,SSW,193,0.0,-999.0,82,-99.99,,,0.02,weatherlink.com 1.10,2013-05-22 03:50:00,